Berlin Township, Michigan
Current Conditions -  °F | °C
As of 6:14 PM on Wednesday 26 Nov 2014 (Local Time) from KD95 Reporting Station
Overcast Overcast  
Wind Chill: 26°   Ceiling: 4500
Heat Index: 31°   Visibility: 10mi
Dew Point: 24°   Wind: 5mph
Humidity: 75%   Direction: 360°N
Pressure: 30.11"   Gusts: NA
Location:  42.9384°N, 82.9255°W
Report Text: KD95 262314Z AUTO 36004KT 10SM SCT036 OVC045 M01/M05 A3011 RMK AO2 T10081047
Loading
Personal Weather Stations






























Interactive Weather Map New forecast layout! Learn more

10-Day Weather Forecast

Advertisements
Track Severe Weather on mobile